Time;durP1;ratioP1;P1;durP2;ratioP2;P2;SDS_P1;SDS_P2;PMS_P1;PMS_P2;Temp;Humidity;BMP_temperature;BMP_pressure;BME280_temperature;BME280_humidity;BME280_pressure;Samples;Min_cycle;Max_cycle;Signal;HPM_P1;HPM_P2
2022/03/27 00:02:20;;;;;;;;;35.33;29.67;;;;;16.83;33.83;102417.59;4956046;28;45334;-83
2022/03/27 00:04:47;;;;;;;;;32.67;28.67;;;;;16.84;33.60;102421.16;4955741;28;45430;-83
2022/03/27 00:07:12;;;;;;;;;36.33;32.00;;;;;16.82;33.63;102423.03;4954335;28;45367;-83
2022/03/27 00:09:38;;;;;;;;;38.75;30.50;;;;;16.88;34.10;102438.94;4957022;28;45454;-83
2022/03/27 00:12:04;;;;;;;;;45.75;33.00;;;;;16.87;33.91;102442.56;4976812;28;45319;-83
2022/03/27 00:14:30;;;;;;;;;30.00;28.75;;;;;16.76;33.98;102416.03;4987211;28;46441;-83
2022/03/27 00:16:56;;;;;;;;;35.75;30.50;;;;;16.83;33.90;102436.44;4974276;28;45562;-83
2022/03/27 00:19:21;;;;;;;;;39.75;31.50;;;;;16.66;33.89;102412.00;4989506;27;45269;-83
2022/03/27 00:21:46;;;;;;;;;30.75;28.75;;;;;16.78;33.75;102427.63;4994243;28;45650;-83
2022/03/27 00:24:12;;;;;;;;;33.75;26.75;;;;;16.43;34.02;102377.97;4986471;28;46078;-83
2022/03/27 00:26:37;;;;;;;;;38.75;31.50;;;;;16.47;34.36;102382.31;4974763;28;45252;-83
2022/03/27 00:29:04;;;;;;;;;37.75;30.50;;;;;16.68;34.45;102429.84;4974596;28;45405;-83
2022/03/27 00:31:35;;;;;;;;;36.33;32.67;;;;;16.71;34.26;102436.03;4974054;28;45484;-83
2022/03/27 00:34:01;;;;;;;;;41.25;32.50;;;;;16.39;34.23;102389.84;4974569;28;46082;-86
2022/03/27 00:36:27;;;;;;;;;35.00;32.50;;;;;16.23;34.39;102358.19;4968225;28;46030;-83
2022/03/27 00:38:52;;;;;;;;;35.00;30.33;;;;;16.64;34.60;102435.44;4967127;28;45489;-82
2022/03/27 00:41:19;;;;;;;;;35.50;30.25;;;;;16.55;34.60;102417.88;4969042;28;45436;-83
2022/03/27 00:43:44;;;;;;;;;31.25;26.50;;;;;16.45;34.36;102400.34;4961166;28;46013;-83
2022/03/27 00:46:10;;;;;;;;;35.75;26.75;;;;;16.61;34.44;102427.50;4984036;28;45439;-83
2022/03/27 00:48:35;;;;;;;;;36.33;31.33;;;;;16.55;34.72;102425.94;4976452;28;45453;-83
2022/03/27 00:51:01;;;;;;;;;34.33;28.00;;;;;16.49;34.60;102411.84;5000356;28;45703;-82
2022/03/27 00:53:26;;;;;;;;;40.00;31.75;;;;;16.55;34.73;102431.31;4996689;28;45446;-83
2022/03/27 00:55:52;;;;;;;;;31.00;29.00;;;;;16.19;34.57;102366.44;4996253;27;45417;-82
2022/03/27 00:58:18;;;;;;;;;36.00;32.33;;;;;15.81;34.77;102309.72;4984036;27;45408;-82
2022/03/27 01:00:46;;;;;;;;;40.33;30.67;;;;;16.52;34.91;102420.66;4977697;28;45456;-82
2022/03/27 01:03:15;;;;;;;;;38.67;32.00;;;;;16.46;34.79;102413.72;4987000;27;45542;-83
2022/03/27 01:05:42;;;;;;;;;35.33;31.67;;;;;16.49;34.92;102426.19;4975910;28;46147;-83
2022/03/27 01:08:10;;;;;;;;;31.67;28.00;;;;;15.98;34.90;102333.22;4977240;28;45429;-82
2022/03/27 01:10:36;;;;;;;;;35.33;30.33;;;;;16.47;35.23;102417.28;4972277;28;45770;-82
2022/03/27 01:13:12;;;;;;;;;38.67;29.00;;;;;16.14;35.15;102366.63;4958793;28;46223;-82
2022/03/27 01:15:42;;;;;;;;;36.00;26.67;;;;;16.44;35.22;102418.31;4996459;27;45340;-83
2022/03/27 01:18:08;;;;;;;;;40.00;32.67;;;;;16.15;35.30;102373.75;4977569;28;45695;-83
2022/03/27 01:20:39;;;;;;;;;31.67;27.67;;;;;16.39;35.36;102420.31;4977550;28;45366;-82
2022/03/27 01:23:13;;;;;;;;;36.50;33.50;;;;;16.38;35.33;102418.53;4963366;28;45759;-83
2022/03/27 01:25:41;;;;;;;;;33.33;28.00;;;;;16.18;35.38;102379.03;4957656;28;45189;-83
2022/03/27 01:28:12;;;;;;;;;39.67;32.33;;;;;16.02;35.49;102348.31;4972241;28;45440;-83
2022/03/27 01:30:37;;;;;;;;;37.67;32.00;;;;;16.09;35.72;102365.94;4957943;28;45362;-82
2022/03/27 01:33:05;;;;;;;;;33.00;29.50;;;;;16.28;35.99;102405.53;4967889;28;46012;-82
2022/03/27 01:35:31;;;;;;;;;31.33;26.00;;;;;16.14;35.63;102371.13;4975701;28;45918;-82
2022/03/27 01:37:57;;;;;;;;;41.25;32.25;;;;;15.85;35.66;102321.22;4976563;28;45518;-83
2022/03/27 01:40:22;;;;;;;;;36.00;30.00;;;;;16.29;35.79;102402.78;4980901;28;45369;-83
2022/03/27 01:42:49;;;;;;;;;40.33;31.67;;;;;16.27;35.73;102406.47;4980515;28;47254;-82
2022/03/27 01:45:15;;;;;;;;;36.67;29.00;;;;;16.06;35.98;102370.56;4975483;28;45855;-82
2022/03/27 01:47:41;;;;;;;;;41.67;32.67;;;;;15.54;36.05;102288.34;4962963;28;45339;-82
2022/03/27 01:50:07;;;;;;;;;36.67;31.00;;;;;16.21;35.94;102395.03;4976884;28;45365;-82
2022/03/27 01:52:33;;;;;;;;;33.00;31.67;;;;;15.99;36.31;102362.75;4976447;28;46345;-83
2022/03/27 01:54:59;;;;;;;;;32.33;27.33;;;;;15.76;35.95;102317.09;4970409;28;45400;-82
2022/03/27 01:57:24;;;;;;;;;31.33;29.33;;;;;15.92;36.42;102342.44;4964673;28;45545;-83
2022/03/27 01:59:50;;;;;;;;;37.00;30.67;;;;;16.02;36.42;102373.38;4976986;28;45385;-82
2022/03/27 02:02:23;;;;;;;;;35.00;29.33;;;;;15.90;36.55;102351.50;4976526;28;45495;-82
2022/03/27 02:04:50;;;;;;;;;26.67;25.00;;;;;16.07;36.50;102377.72;4976861;28;45614;-82
2022/03/27 02:07:16;;;;;;;;;31.67;25.33;;;;;16.06;36.52;102384.00;4972856;28;45470;-83
2022/03/27 02:09:41;;;;;;;;;30.67;25.67;;;;;16.03;36.54;102374.25;4967728;28;45295;-82
2022/03/27 02:12:07;;;;;;;;;33.67;29.00;;;;;16.01;36.68;102374.34;4958681;28;46159;-82
2022/03/27 02:14:32;;;;;;;;;39.33;28.33;;;;;15.92;36.42;102371.09;4962723;28;45787;-82
2022/03/27 02:16:57;;;;;;;;;29.33;21.33;;;;;15.73;36.63;102339.63;4990125;28;45540;-82
2022/03/27 02:19:23;;;;;;;;;29.00;21.67;;;;;15.96;36.67;102373.63;4960781;27;45385;-82
2022/03/27 02:21:48;;;;;;;;;30.00;27.00;;;;;15.95;36.63;102376.38;4978036;28;45389;-82
2022/03/27 02:24:13;;;;;;;;;26.33;23.67;;;;;15.94;36.91;102371.94;4966905;27;48124;-82
2022/03/27 02:26:44;;;;;;;;;32.00;28.67;;;;;15.82;36.84;102359.84;4956217;28;45784;-83
2022/03/27 02:29:14;;;;;;;;;35.33;26.67;;;;;15.66;36.74;102338.03;4957055;28;45362;-83
2022/03/27 02:31:40;;;;;;;;;28.33;24.00;;;;;15.89;36.97;102382.00;4956563;28;46363;-83
2022/03/27 02:34:06;;;;;;;;;30.67;29.00;;;;;15.86;37.10;102379.44;4956750;28;45430;-82
2022/03/27 02:36:31;;;;;;;;;34.33;27.00;;;;;15.56;36.89;102337.53;4962385;28;45326;-82
2022/03/27 02:38:57;;;;;;;;;31.00;26.67;;;;;15.83;36.96;102386.69;4976576;28;45425;-82
2022/03/27 02:41:22;;;;;;;;;25.00;23.33;;;;;15.62;37.20;102355.25;4975885;28;48340;-82
2022/03/27 02:43:47;;;;;;;;;29.33;27.67;;;;;15.55;37.29;102343.00;4981101;28;45404;-82
2022/03/27 02:46:13;;;;;;;;;29.33;27.00;;;;;15.79;37.25;102385.06;4974109;28;45354;-82
2022/03/27 02:48:38;;;;;;;;;27.00;22.00;;;;;15.39;36.96;102316.69;4956715;28;45378;-82
2022/03/27 02:51:04;;;;;;;;;29.00;24.00;;;;;15.52;37.41;102343.97;4960533;28;46217;-83
2022/03/27 02:53:30;;;;;;;;;26.67;23.67;;;;;15.54;37.41;102352.84;4981475;28;45393;-82
2022/03/27 02:55:56;;;;;;;;;24.33;24.33;;;;;15.48;37.24;102346.84;4974648;28;45512;-83
2022/03/27 02:58:21;;;;;;;;;30.00;25.33;;;;;15.65;37.46;102379.31;4975497;28;45762;-83
2022/03/27 03:00:46;;;;;;;;;30.00;23.00;;;;;15.55;37.35;102362.66;4982477;27;46270;-82
2022/03/27 03:03:13;;;;;;;;;33.00;27.00;;;;;15.58;37.53;102367.91;4977907;28;45445;-82
2022/03/27 03:05:40;;;;;;;;;29.67;27.33;;;;;15.46;37.38;102354.97;4976193;28;45320;-82
2022/03/27 03:08:11;;;;;;;;;38.33;31.67;;;;;15.44;37.41;102356.81;4973629;28;45384;-83
2022/03/27 03:10:40;;;;;;;;;26.67;26.33;;;;;15.61;37.54;102388.41;4956122;28;45340;-82
2022/03/27 03:13:09;;;;;;;;;34.00;30.00;;;;;15.58;37.65;102385.84;4956143;28;45474;-83
2022/03/27 03:15:40;;;;;;;;;32.33;24.67;;;;;15.53;37.78;102382.47;4974441;28;45487;-82
2022/03/27 03:18:08;;;;;;;;;27.67;23.67;;;;;15.54;37.57;102386.91;4960545;28;45429;-82
2022/03/27 03:20:34;;;;;;;;;25.00;22.33;;;;;15.51;37.95;102387.91;4938459;28;46086;-82
2022/03/27 03:23:00;;;;;;;;;31.00;28.50;;;;;15.37;38.11;102372.28;4955962;28;45374;-82
2022/03/27 03:25:25;;;;;;;;;27.00;22.33;;;;;15.18;37.86;102347.94;4960868;28;45437;-82
2022/03/27 03:27:51;;;;;;;;;31.33;27.33;;;;;15.30;38.00;102362.72;4976960;28;45316;-82
2022/03/27 03:30:17;;;;;;;;;27.00;24.00;;;;;15.11;38.09;102348.22;4975591;28;45330;-82
2022/03/27 03:32:43;;;;;;;;;23.33;18.33;;;;;15.46;38.05;102392.56;4974098;28;45497;-82
2022/03/27 03:35:09;;;;;;;;;30.00;26.67;;;;;15.13;37.89;102338.31;4956361;28;45288;-82
2022/03/27 03:37:35;;;;;;;;;27.33;22.00;;;;;15.44;38.37;102391.75;4956104;28;45620;-83
2022/03/27 03:40:02;;;;;;;;;22.00;21.33;;;;;15.40;38.14;102392.78;4970824;28;46302;-83
2022/03/27 03:42:28;;;;;;;;;28.67;23.67;;;;;15.33;38.43;102383.22;4971856;28;45549;-82
2022/03/27 03:44:54;;;;;;;;;29.67;23.00;;;;;15.37;38.14;102393.78;4974030;28;45506;-82
2022/03/27 03:47:20;;;;;;;;;24.33;22.00;;;;;15.35;38.28;102394.78;4956513;28;45343;-83
2022/03/27 03:49:45;;;;;;;;;27.67;21.67;;;;;15.34;38.52;102391.22;4955829;28;46468;-83
2022/03/27 03:52:11;;;;;;;;;19.33;18.00;;;;;15.13;38.25;102370.53;4955746;28;45415;-82
2022/03/27 03:54:36;;;;;;;;;22.67;20.33;;;;;15.08;38.22;102368.03;4957450;28;45427;-82
2022/03/27 03:57:03;;;;;;;;;27.67;15.00;;;;;15.25;38.44;102398.75;4975326;28;45700;-82
2022/03/27 03:59:28;;;;;;;;;27.33;25.00;;;;;15.26;38.56;102397.81;4974689;28;45501;-82
2022/03/27 04:01:54;;;;;;;;;26.67;24.00;;;;;15.23;38.62;102398.81;4974693;28;45324;-83
2022/03/27 04:04:19;;;;;;;;;33.00;25.67;;;;;15.20;38.51;102396.25;4975220;28;45721;-83
2022/03/27 04:06:44;;;;;;;;;21.67;13.33;;;;;14.85;38.75;102338.44;4963442;28;45505;-83
2022/03/27 04:09:10;;;;;;;;;21.67;20.00;;;;;15.07;38.76;102381.50;4955638;28;45425;-83
2022/03/27 04:11:35;;;;;;;;;28.67;21.33;;;;;15.14;38.80;102388.41;4955274;28;45486;-83
2022/03/27 04:14:00;;;;;;;;;27.67;22.67;;;;;14.77;38.59;102330.66;4955770;28;45330;-82
2022/03/27 04:16:26;;;;;;;;;24.33;22.67;;;;;14.88;38.93;102357.13;4955876;28;45501;-82
2022/03/27 04:18:51;;;;;;;;;28.33;25.33;;;;;14.59;39.12;102317.91;4955356;28;45940;-83
2022/03/27 04:21:17;;;;;;;;;26.00;22.33;;;;;14.83;38.83;102353.72;4955462;28;45224;-82
2022/03/27 04:23:43;;;;;;;;;22.00;22.00;;;;;14.94;38.85;102371.19;4955117;28;45296;-82
2022/03/27 04:26:08;;;;;;;;;27.67;26.33;;;;;15.06;38.89;102401.25;4955965;28;45399;-82
2022/03/27 04:28:34;;;;;;;;;26.00;22.33;;;;;14.97;39.12;102386.31;4955213;28;45406;-82
2022/03/27 04:30:59;;;;;;;;;28.33;25.67;;;;;14.81;39.09;102360.97;4955053;28;49124;-82
2022/03/27 04:33:24;;;;;;;;;26.67;26.33;;;;;15.00;39.33;102402.31;4955389;28;45315;-82
2022/03/27 04:35:50;;;;;;;;;28.33;23.33;;;;;14.84;39.61;102374.25;4961536;28;45337;-83
2022/03/27 04:38:16;;;;;;;;;23.33;19.67;;;;;14.51;39.32;102334.22;4974869;28;45998;-82
2022/03/27 04:40:42;;;;;;;;;24.00;20.33;;;;;14.61;39.38;102348.22;4974251;28;45340;-82
2022/03/27 04:43:07;;;;;;;;;27.00;20.33;;;;;14.92;39.50;102415.16;4974885;28;45391;-82
2022/03/27 04:45:33;;;;;;;;;23.67;19.00;;;;;14.83;39.46;102396.69;4974971;28;45524;-83
2022/03/27 04:47:58;;;;;;;;;28.33;27.33;;;;;14.78;39.30;102397.72;4974119;28;53397;-83
2022/03/27 04:50:24;;;;;;;;;28.33;22.67;;;;;14.35;39.67;102324.03;4974376;28;45434;-83
2022/03/27 04:52:49;;;;;;;;;25.33;22.67;;;;;14.72;39.60;102392.53;4963059;28;45406;-82
2022/03/27 04:55:15;;;;;;;;;22.00;21.33;;;;;14.75;39.59;102402.31;4955187;28;45230;-82
2022/03/27 04:57:41;;;;;;;;;26.67;22.67;;;;;14.65;39.87;102390.13;4969481;28;47108;-82
2022/03/27 05:00:11;;;;;;;;;31.67;28.00;;;;;14.29;39.66;102334.97;4954881;28;45391;-82
2022/03/27 05:02:38;;;;;;;;;23.67;22.33;;;;;14.53;40.26;102381.53;4959304;28;45369;-83
2022/03/27 05:05:05;;;;;;;;;29.33;23.67;;;;;14.29;39.75;102347.50;4974453;28;45412;-82
2022/03/27 05:07:30;;;;;;;;;22.67;22.33;;;;;14.67;40.19;102413.31;4974119;28;45300;-83
2022/03/27 05:09:56;;;;;;;;;26.67;23.33;;;;;14.49;39.99;102396.00;4974121;28;45362;-82
2022/03/27 05:12:21;;;;;;;;;30.33;25.00;;;;;14.60;40.16;102416.25;4974679;28;45355;-82
2022/03/27 05:14:47;;;;;;;;;29.33;22.67;;;;;14.62;40.21;102419.75;4974066;28;45185;-83
2022/03/27 05:17:12;;;;;;;;;32.00;28.67;;;;;14.59;40.28;102425.25;4973895;28;45989;-82
2022/03/27 05:19:37;;;;;;;;;32.00;23.67;;;;;14.40;40.41;102398.09;4974036;28;45256;-82
2022/03/27 05:22:03;;;;;;;;;33.67;27.33;;;;;14.54;40.63;102428.09;4974261;28;49618;-83
2022/03/27 05:24:28;;;;;;;;;28.00;19.67;;;;;14.25;40.42;102381.56;4977228;28;45704;-83
2022/03/27 05:26:54;;;;;;;;;35.67;28.67;;;;;14.31;40.49;102394.81;4976279;28;46271;-83
2022/03/27 05:29:19;;;;;;;;;25.00;22.33;;;;;14.36;40.50;102416.09;4970306;28;45225;-82
2022/03/27 05:31:45;;;;;;;;;18.33;18.00;;;;;14.45;40.86;102426.53;4939706;28;45575;-82
2022/03/27 05:34:10;;;;;;;;;28.00;23.00;;;;;14.40;40.94;102431.19;4957946;28;45364;-83
2022/03/27 05:36:36;;;;;;;;;28.33;25.00;;;;;14.20;40.85;102402.31;4957476;28;45422;-83
2022/03/27 05:39:02;;;;;;;;;26.67;24.33;;;;;14.34;40.80;102417.97;4974140;27;45398;-83
2022/03/27 05:41:27;;;;;;;;;35.33;25.33;;;;;14.00;40.68;102368.13;4997122;28;45453;-82
2022/03/27 05:43:52;;;;;;;;;32.00;27.33;;;;;14.17;41.15;102397.06;4976643;28;45324;-82
2022/03/27 05:46:18;;;;;;;;;29.50;25.50;;;;;14.24;40.96;102403.97;4976984;28;45462;-83
2022/03/27 05:48:43;;;;;;;;;29.00;25.00;;;;;14.23;41.28;102409.38;4976711;28;45801;-82
2022/03/27 05:51:08;;;;;;;;;31.33;27.67;;;;;14.40;41.01;102441.91;4977017;28;45930;-83
2022/03/27 05:53:34;;;;;;;;;26.67;17.33;;;;;14.12;40.97;102390.97;4962445;28;45282;-83
2022/03/27 05:55:59;;;;;;;;;25.33;21.67;;;;;14.41;41.21;102442.78;4956960;28;45415;-83
2022/03/27 05:58:25;;;;;;;;;27.33;23.67;;;;;14.25;41.04;102423.63;4971662;28;45781;-82
2022/03/27 06:00:51;;;;;;;;;32.33;24.67;;;;;14.38;41.10;102442.91;4976524;28;45859;-83
2022/03/27 06:03:17;;;;;;;;;30.00;26.33;;;;;14.25;41.17;102424.50;4963447;28;46471;-83
2022/03/27 06:05:42;;;;;;;;;30.33;27.00;;;;;14.30;41.49;102435.06;4956813;28;45509;-83
2022/03/27 06:08:09;;;;;;;;;28.33;22.00;;;;;14.36;41.49;102446.50;4957414;28;45865;-82
2022/03/27 06:10:35;;;;;;;;;34.00;28.00;;;;;13.97;41.20;102388.75;4940048;28;45450;-82
2022/03/27 06:13:02;;;;;;;;;36.67;26.67;;;;;14.18;40.91;102424.75;4957373;28;45336;-83
2022/03/27 06:15:29;;;;;;;;;33.33;32.67;;;;;14.35;41.43;102455.47;4939503;28;46661;-83
2022/03/27 06:17:56;;;;;;;;;24.00;23.67;;;;;14.24;41.52;102441.53;4956564;28;45206;-83
2022/03/27 06:20:24;;;;;;;;;29.33;28.00;;;;;13.97;41.43;102394.13;4956988;28;45474;-83
2022/03/27 06:22:50;;;;;;;;;29.67;24.67;;;;;14.16;41.66;102424.78;4957181;28;45616;-82
2022/03/27 06:25:19;;;;;;;;;33.00;24.67;;;;;14.34;41.44;102458.19;4956780;28;45484;-82
2022/03/27 06:27:45;;;;;;;;;28.33;27.00;;;;;14.36;41.74;102465.25;4956798;28;45396;-83
2022/03/27 06:30:15;;;;;;;;;32.33;28.67;;;;;14.36;41.49;102459.91;4957122;28;45213;-82
2022/03/27 06:32:41;;;;;;;;;28.33;27.33;;;;;14.16;41.60;102427.47;4957445;28;45406;-82
2022/03/27 06:35:07;;;;;;;;;31.33;29.33;;;;;14.32;41.63;102450.19;4955532;28;46204;-83
2022/03/27 06:37:33;;;;;;;;;33.67;26.00;;;;;14.43;41.73;102470.44;4956889;28;45363;-83
2022/03/27 06:39:59;;;;;;;;;27.00;23.00;;;;;14.46;41.69;102473.88;4956555;28;45310;-83
2022/03/27 06:42:28;;;;;;;;;33.67;29.00;;;;;14.46;41.46;102463.16;4957346;28;45446;-82
2022/03/27 06:44:55;;;;;;;;;36.67;27.00;;;;;14.29;41.81;102436.88;4956327;28;45425;-83
2022/03/27 06:47:22;;;;;;;;;26.33;23.33;;;;;14.50;41.55;102469.31;4957047;28;45414;-82
2022/03/27 06:49:49;;;;;;;;;30.67;28.00;;;;;14.47;41.49;102462.25;4956432;28;45339;-82
2022/03/27 06:52:15;;;;;;;;;31.00;27.00;;;;;14.53;41.72;102467.41;4957078;28;45312;-82
2022/03/27 06:54:41;;;;;;;;;32.33;22.67;;;;;13.65;41.34;102311.16;4956618;28;45501;-82
2022/03/27 06:57:06;;;;;;;;;27.67;23.33;;;;;14.26;41.33;102410.16;4956227;28;45586;-82
2022/03/27 07:03:01;;;;;;;;;27.67;22.33;;;;;14.28;41.48;102402.06;4939052;28;45333;-83
2022/03/27 07:05:02;;;;;;;;;32.33;26.67;;;;;14.56;41.46;102447.66;4975361;28;45441;-83
2022/03/27 07:07:28;;;;;;;;;23.67;22.00;;;;;14.72;41.14;102464.13;5059577;28;45382;-84
2022/03/27 07:09:53;;;;;;;;;28.67;27.00;;;;;14.36;41.29;102397.34;5042617;28;45431;-83
2022/03/27 07:12:19;;;;;;;;;30.00;25.67;;;;;14.81;41.20;102463.84;4976184;28;45503;-82
2022/03/27 07:14:44;;;;;;;;;26.00;25.33;;;;;14.84;40.98;102455.66;4975551;28;45357;-82
2022/03/27 07:17:10;;;;;;;;;24.67;20.33;;;;;14.85;40.84;102453.88;4975174;28;51338;-81
2022/03/27 07:19:35;;;;;;;;;28.33;27.00;;;;;14.85;40.92;102456.56;4975263;28;45448;-82
2022/03/27 07:22:01;;;;;;;;;32.67;27.33;;;;;14.89;40.83;102458.19;4975643;28;45603;-85
2022/03/27 07:24:27;;;;;;;;;47.50;36.00;;;;;14.99;41.06;102473.06;4990226;28;48280;-83
2022/03/27 07:26:52;;;;;;;;;30.33;26.33;;;;;15.00;40.95;102464.06;4979102;28;45499;-83
2022/03/27 07:29:17;;;;;;;;;34.67;32.00;;;;;15.08;41.17;102467.38;5056231;28;45390;-83
2022/03/27 07:31:43;;;;;;;;;29.67;27.00;;;;;15.16;40.70;102473.34;5060444;28;45781;-83
2022/03/27 07:34:10;;;;;;;;;32.00;26.00;;;;;15.12;40.65;102452.91;4974818;28;45443;-83
2022/03/27 07:36:36;;;;;;;;;26.00;23.00;;;;;15.29;40.15;102475.59;4968570;28;45382;-82
2022/03/27 07:39:03;;;;;;;;;31.67;26.00;;;;;15.35;40.39;102470.00;4986942;28;45453;-82
2022/03/27 07:41:28;;;;;;;;;32.00;23.33;;;;;15.28;40.26;102449.69;4995414;28;45445;-82
2022/03/27 07:43:54;;;;;;;;;30.67;23.33;;;;;15.50;40.59;102474.84;5006001;28;64986;-82
2022/03/27 07:46:19;;;;;;;;;29.00;27.00;;;;;15.28;40.17;102429.06;5050330;28;50376;-84
2022/03/27 07:48:44;;;;;;;;;29.67;26.33;;;;;15.62;40.28;102468.13;4994904;28;45298;-82
2022/03/27 07:51:09;;;;;;;;;25.67;21.67;;;;;15.45;39.83;102427.56;4975633;28;45803;-83
2022/03/27 07:53:35;;;;;;;;;24.33;22.33;;;;;15.82;39.87;102473.66;4955344;28;45586;-82
2022/03/27 07:56:00;;;;;;;;;32.33;27.00;;;;;15.54;39.70;102421.84;4955691;28;45388;-82
2022/03/27 07:58:26;;;;;;;;;28.33;22.33;;;;;15.72;39.84;102440.00;4983474;27;45665;-82
2022/03/27 08:00:51;;;;;;;;;30.00;25.00;;;;;15.98;39.56;102465.00;4986165;28;45447;-82
2022/03/27 08:03:17;;;;;;;;;22.33;22.33;;;;;15.98;39.23;102455.13;4971718;28;45532;-82
2022/03/27 08:05:43;;;;;;;;;31.67;26.00;;;;;16.15;39.35;102472.41;4967460;28;47110;-83
2022/03/27 08:08:08;;;;;;;;;25.67;25.67;;;;;16.12;39.03;102459.09;4972609;28;45343;-83
2022/03/27 08:10:34;;;;;;;;;18.00;17.67;;;;;16.29;38.85;102475.44;4966620;28;45338;-83
2022/03/27 08:12:59;;;;;;;;;28.67;22.67;;;;;16.39;39.11;102475.97;4983727;28;45912;-82
2022/03/27 08:15:25;;;;;;;;;24.33;23.00;;;;;16.46;38.29;102470.25;4998385;28;45823;-82
2022/03/27 08:17:53;;;;;;;;;28.33;25.67;;;;;16.25;38.54;102430.78;4964944;28;45907;-85
2022/03/27 08:20:19;;;;;;;;;27.00;22.33;;;;;16.48;38.33;102461.22;4973356;28;45334;-83
2022/03/27 08:22:45;;;;;;;;;29.00;26.67;;;;;16.58;38.22;102463.50;4974391;28;45389;-83
2022/03/27 08:25:12;;;;;;;;;24.67;24.67;;;;;16.55;37.65;102442.09;4986163;28;45485;-85
2022/03/27 08:27:37;;;;;;;;;26.33;21.00;;;;;16.84;37.67;102477.72;5000144;27;45574;-83
2022/03/27 08:30:03;;;;;;;;;20.00;19.00;;;;;16.95;37.35;102474.53;4991140;28;45401;-82
2022/03/27 08:32:28;;;;;;;;;26.00;22.33;;;;;16.97;37.31;102448.41;5055806;28;46428;-82
2022/03/27 08:34:54;;;;;;;;;24.33;19.67;;;;;17.04;36.69;102436.44;5051314;27;45366;-83
2022/03/27 08:37:19;;;;;;;;;28.33;23.67;;;;;17.34;36.78;102458.47;5009340;28;45430;-82
2022/03/27 08:39:45;;;;;;;;;20.00;18.67;;;;;17.64;36.33;102469.69;5027753;28;45488;-82
2022/03/27 08:42:13;;;;;;;;;25.67;20.67;;;;;17.83;35.90;102475.13;5076534;27;46638;-82
2022/03/27 08:44:39;;;;;;;;;26.67;22.00;;;;;17.86;35.23;102441.72;5042309;28;45437;-81
2022/03/27 08:47:13;;;;;;;;;26.33;22.67;;;;;17.96;35.45;102424.19;5027307;28;45562;-82
2022/03/27 08:49:38;;;;;;;;;27.00;22.33;;;;;18.65;34.87;102472.06;5052075;28;45547;-81
2022/03/27 08:52:29;;;;;;;;;22.33;19.67;;;;;19.13;34.22;102465.16;5049789;28;46845;-81
2022/03/27 08:55:15;;;;;;;;;23.67;22.67;;;;;19.22;33.43;102436.75;5005516;28;45773;-82
2022/03/27 08:57:53;;;;;;;;;25.67;23.33;;;;;20.00;32.90;102467.69;5037226;27;45431;-84
2022/03/27 09:00:21;;;;;;;;;25.67;23.67;;;;;21.38;30.75;102430.72;4977097;28;45782;-84
2022/03/27 09:02:47;;;;;;;;;23.67;19.00;;;;;22.82;29.04;102417.69;5001978;28;45588;-85
2022/03/27 09:05:13;;;;;;;;;19.33;19.33;;;;;24.03;27.08;102422.69;5027492;28;45476;-87
2022/03/27 09:07:38;;;;;;;;;18.67;18.67;;;;;24.95;26.42;102434.78;4989115;27;45505;-84
2022/03/27 09:10:13;;;;;;;;;24.67;22.00;;;;;25.81;25.52;102460.75;5019740;28;45453;-82
2022/03/27 09:12:39;;;;;;;;;21.33;19.33;;;;;26.39;24.36;102456.97;5001450;28;46044;-85
2022/03/27 09:15:08;;;;;;;;;25.00;23.67;;;;;26.78;23.95;102451.88;4985149;27;45379;-83
2022/03/27 09:17:57;;;;;;;;;24.00;21.67;;;;;27.51;23.33;102456.44;4976406;28;45771;-83
2022/03/27 09:20:34;;;;;;;;;22.00;22.00;;;;;28.33;22.41;102452.69;4973710;28;45465;-83
2022/03/27 09:23:19;;;;;;;;;22.00;21.33;;;;;29.18;21.91;102459.38;4956299;28;47479;-83
2022/03/27 09:25:50;;;;;;;;;25.00;19.33;;;;;29.93;21.02;102444.81;5017593;27;45471;-83
2022/03/27 09:28:32;;;;;;;;;20.33;19.33;;;;;30.56;20.27;102431.09;4984751;28;45461;-83
2022/03/27 09:31:00;;;;;;;;;20.00;17.67;;;;;31.18;19.02;102416.44;4982279;28;46558;-84
2022/03/27 09:33:33;;;;;;;;;19.00;15.67;;;;;31.85;18.71;102435.97;4960159;28;46518;-83
2022/03/27 09:36:12;;;;;;;;;16.67;14.33;;;;;32.54;18.42;102453.25;4975382;28;45390;-84
2022/03/27 09:38:38;;;;;;;;;22.67;17.00;;;;;33.00;17.68;102402.00;5020996;28;45457;-84
2022/03/27 09:41:05;;;;;;;;;18.33;16.67;;;;;33.98;17.67;102441.47;4994040;28;45445;-85
2022/03/27 09:43:31;;;;;;;;;20.00;18.33;;;;;34.51;17.02;102422.28;4974106;28;45973;-85
2022/03/27 09:46:02;;;;;;;;;21.67;17.00;;;;;34.83;16.81;102344.47;5009482;28;45472;-84
2022/03/27 09:48:28;;;;;;;;;18.33;17.33;;;;;36.10;15.26;102441.44;5079666;28;45298;-84
2022/03/27 09:50:58;;;;;;;;;16.00;15.00;;;;;36.83;15.47;102440.50;4976519;28;45362;-85
2022/03/27 09:53:26;;;;;;;;;18.67;18.00;;;;;37.56;14.44;102433.59;4981324;28;46168;-85
2022/03/27 09:55:58;;;;;;;;;18.67;16.67;;;;;38.30;13.52;102439.47;5021085;28;45423;-85
2022/03/27 09:58:37;;;;;;;;;21.00;17.67;;;;;39.07;14.10;102437.22;5008511;28;45569;-85
2022/03/27 10:01:10;;;;;;;;;18.00;17.33;;;;;39.75;13.28;102403.34;5004548;28;45469;-84
2022/03/27 10:03:54;;;;;;;;;22.67;19.33;;;;;40.60;12.27;102395.53;4983624;28;47039;-85
2022/03/27 10:06:37;;;;;;;;;20.67;20.00;;;;;41.37;12.04;102384.03;5014532;28;45456;-85
2022/03/27 10:09:05;;;;;;;;;19.67;19.00;;;;;42.26;10.99;102400.31;5078923;28;45485;-85
2022/03/27 10:11:31;;;;;;;;;21.00;19.00;;;;;43.12;10.17;102428.88;5010641;28;45526;-85
2022/03/27 10:13:57;;;;;;;;;18.67;18.33;;;;;43.39;9.85;102382.38;4986190;28;46060;-84
2022/03/27 10:16:28;;;;;;;;;19.33;17.67;;;;;44.26;9.84;102422.63;5022873;28;45478;-85
2022/03/27 10:19:05;;;;;;;;;18.67;17.67;;;;;44.79;9.47;102424.09;4974963;28;45437;-85
2022/03/27 10:21:31;;;;;;;;;15.00;15.00;;;;;45.35;8.88;102414.84;4980188;28;45620;-85
2022/03/27 10:24:13;;;;;;;;;17.00;15.67;;;;;45.77;9.03;102426.38;4958450;28;46434;-85
2022/03/27 10:26:42;;;;;;;;;21.33;17.67;;;;;46.13;8.35;102432.47;4975870;28;45474;-85
2022/03/27 10:29:09;;;;;;;;;17.67;17.00;;;;;46.46;8.39;102414.47;4975939;28;45827;-85
2022/03/27 10:31:35;;;;;;;;;22.00;18.00;;;;;46.80;7.93;102402.03;4965360;28;45409;-85
2022/03/27 10:34:02;;;;;;;;;20.33;20.00;;;;;46.97;7.87;102419.63;5012030;28;46000;-85
2022/03/27 10:36:40;;;;;;;;;17.00;17.00;;;;;46.91;8.11;102413.13;5003883;27;45407;-85
2022/03/27 10:39:23;;;;;;;;;18.67;17.33;;;;;46.82;8.41;102408.25;4986857;28;45425;-85
2022/03/27 10:41:53;;;;;;;;;13.67;11.67;;;;;46.66;7.96;102381.88;4961633;28;45412;-84
2022/03/27 10:44:43;;;;;;;;;21.33;18.67;;;;;46.63;8.27;102402.16;4956414;28;45416;-87
2022/03/27 10:47:25;;;;;;;;;18.33;17.67;;;;;46.29;7.75;102393.94;4981141;28;45384;-84
2022/03/27 10:50:04;;;;;;;;;23.00;23.00;;;;;45.97;8.75;102394.78;4995354;28;45859;-84
2022/03/27 10:52:58;;;;;;;;;22.00;19.00;;;;;45.64;8.35;102395.81;4984699;28;45486;-84
2022/03/27 10:55:36;;;;;;;;;21.67;20.00;;;;;45.25;8.61;102376.97;4975875;28;45927;-84
2022/03/27 10:58:36;;;;;;;;;30.00;27.75;;;;;44.72;8.76;102374.75;4975537;28;45387;-83
2022/03/27 11:01:27;;;;;;;;;30.50;28.50;;;;;43.82;8.84;102355.72;4975305;28;45299;-83
2022/03/27 11:04:04;;;;;;;;;36.00;31.75;;;;;43.44;9.08;102359.16;4948550;28;45438;-83
2022/03/27 11:06:32;;;;;;;;;28.00;24.50;;;;;43.17;9.04;102367.25;4993981;28;46243;-84
2022/03/27 11:08:59;;;;;;;;;24.00;21.67;;;;;42.70;9.40;102342.88;4953091;28;45589;-85
2022/03/27 11:11:53;;;;;;;;;25.00;21.67;;;;;42.41;9.52;102363.47;4976702;28;45738;-84
2022/03/27 11:14:46;;;;;;;;;22.00;20.33;;;;;42.25;10.15;102359.38;4993716;27;45464;-84
2022/03/27 11:17:13;;;;;;;;;20.00;20.00;;;;;41.91;9.82;102345.00;4987038;28;47638;-84